createdAt,value
2023-05-06T00:00:44.875Z,989.00
2023-05-06T00:01:44.915Z,988.00
2023-05-06T00:02:45.271Z,968.00
2023-05-06T00:03:45.205Z,987.00
2023-05-06T00:04:45.071Z,969.00
2023-05-06T00:05:45.064Z,986.00
2023-05-06T00:06:45.145Z,980.00
2023-05-06T00:07:45.212Z,986.00
2023-05-06T00:08:45.258Z,983.00
2023-05-06T00:09:45.281Z,969.00
2023-05-06T00:10:45.324Z,977.00
2023-05-06T00:11:45.378Z,979.00
2023-05-06T00:12:45.698Z,976.00
2023-05-06T00:13:45.507Z,982.00
2023-05-06T00:14:45.575Z,978.00
2023-05-06T00:15:45.621Z,986.00
2023-05-06T00:16:45.767Z,979.00
2023-05-06T00:17:46.229Z,968.00
2023-05-06T00:18:45.807Z,975.00
2023-05-06T00:19:45.826Z,959.00
2023-05-06T00:20:45.929Z,976.00
2023-05-06T00:21:45.989Z,966.00
2023-05-06T00:22:46.028Z,972.00
2023-05-06T00:23:46.079Z,981.00
2023-05-06T00:24:46.145Z,967.00
2023-05-06T00:25:46.218Z,975.00
2023-05-06T00:26:46.261Z,971.00
2023-05-06T00:27:46.301Z,971.00
2023-05-06T00:28:46.388Z,957.00
2023-05-06T00:29:46.437Z,971.00
2023-05-06T00:30:46.482Z,970.00
2023-05-06T00:31:46.567Z,970.00
2023-05-06T00:32:46.715Z,969.00
2023-05-06T00:33:46.671Z,959.00
2023-05-06T00:34:46.797Z,972.00
2023-05-06T00:35:46.786Z,964.00
2023-05-06T00:36:46.823Z,964.00
2023-05-06T00:37:46.886Z,957.00
2023-05-06T00:38:46.942Z,967.00
2023-05-06T00:39:47.028Z,943.00
2023-05-06T00:40:47.018Z,960.00
2023-05-06T00:41:47.083Z,951.00
2023-05-06T00:42:47.182Z,961.00
2023-05-06T00:43:47.229Z,954.00
2023-05-06T00:44:47.285Z,947.00
2023-05-06T00:45:47.346Z,960.00
2023-05-06T00:46:47.385Z,961.00
2023-05-06T00:47:47.466Z,969.00
2023-05-06T00:48:47.461Z,958.00
2023-05-06T00:49:47.530Z,948.00
2023-05-06T00:50:47.722Z,961.00
2023-05-06T00:51:47.614Z,943.00
2023-05-06T00:52:47.686Z,955.00
2023-05-06T00:53:47.701Z,949.00
2023-05-06T00:54:47.747Z,942.00
2023-05-06T00:55:47.760Z,943.00
2023-05-06T00:56:47.848Z,955.00
2023-05-06T00:57:47.890Z,951.00
2023-05-06T00:58:47.937Z,939.00
2023-05-06T00:59:47.974Z,954.00
2023-05-06T01:00:48.045Z,948.00
2023-05-06T01:01:48.070Z,949.00
2023-05-06T01:02:48.478Z,958.00
2023-05-06T01:03:48.240Z,945.00
2023-05-06T01:04:48.231Z,955.00
2023-05-06T01:05:48.281Z,951.00
2023-05-06T01:06:48.366Z,943.00
2023-05-06T01:07:48.393Z,941.00
2023-05-06T01:08:48.444Z,939.00
2023-05-06T01:09:48.526Z,946.00
2023-05-06T01:10:48.576Z,937.00
2023-05-06T01:11:48.566Z,942.00
2023-05-06T01:12:48.658Z,945.00
2023-05-06T01:13:48.688Z,934.00
2023-05-06T01:14:48.692Z,936.00
2023-05-06T01:15:48.738Z,926.00
2023-05-06T01:16:48.874Z,953.00
2023-05-06T01:17:48.879Z,947.00
2023-05-06T01:18:48.888Z,949.00
2023-05-06T01:19:48.934Z,941.00
2023-05-06T01:20:48.938Z,935.00
2023-05-06T01:21:48.995Z,940.00
2023-05-06T01:22:48.998Z,930.00
2023-05-06T01:23:49.024Z,936.00
2023-05-06T01:24:49.086Z,929.00
2023-05-06T01:25:49.120Z,928.00
2023-05-06T01:26:49.103Z,929.00
2023-05-06T01:27:49.123Z,936.00
2023-05-06T01:28:49.178Z,916.00
2023-05-06T01:29:49.180Z,933.00
2023-05-06T01:30:49.239Z,925.00
2023-05-06T01:31:49.228Z,922.00
2023-05-06T01:32:49.285Z,926.00
2023-05-06T01:33:49.294Z,923.00
2023-05-06T01:34:49.361Z,933.00
2023-05-06T01:35:49.387Z,911.00
2023-05-06T01:36:49.437Z,925.00
2023-05-06T01:37:49.476Z,901.00
2023-05-06T01:38:49.603Z,933.00
2023-05-06T01:39:49.491Z,925.00
2023-05-06T01:40:49.532Z,919.00
2023-05-06T01:41:49.569Z,931.00
2023-05-06T01:42:49.759Z,916.00
2023-05-06T01:43:49.651Z,928.00
2023-05-06T01:44:49.690Z,919.00
2023-05-06T01:45:49.689Z,923.00
2023-05-06T01:46:49.801Z,919.00
2023-05-06T01:47:49.806Z,927.00
2023-05-06T01:48:49.797Z,917.00
2023-05-06T01:49:49.877Z,910.00
2023-05-06T01:50:49.846Z,912.00
2023-05-06T01:51:49.938Z,922.00
2023-05-06T01:52:49.906Z,903.00
2023-05-06T01:53:49.929Z,910.00
2023-05-06T01:54:50.062Z,913.00
2023-05-06T01:55:49.989Z,910.00
2023-05-06T01:56:50.020Z,917.00
2023-05-06T01:57:50.062Z,918.00
2023-05-06T01:58:50.066Z,908.00
2023-05-06T01:59:50.124Z,909.00
2023-05-06T02:00:50.145Z,908.00
2023-05-06T02:01:50.217Z,908.00
2023-05-06T02:02:50.251Z,906.00
2023-05-06T02:03:50.273Z,908.00
2023-05-06T02:04:50.194Z,908.00
2023-05-06T02:05:50.224Z,919.00
2023-05-06T02:06:50.217Z,906.00
2023-05-06T02:07:50.213Z,907.00
2023-05-06T02:08:50.269Z,914.00
2023-05-06T02:09:50.280Z,907.00
2023-05-06T02:10:50.288Z,897.00
2023-05-06T02:11:50.279Z,903.00
2023-05-06T02:12:50.352Z,895.00
2023-05-06T02:13:50.360Z,908.00
2023-05-06T02:14:50.331Z,892.00
2023-05-06T02:15:50.388Z,907.00
2023-05-06T02:16:50.401Z,897.00
2023-05-06T02:17:50.516Z,899.00
2023-05-06T02:18:50.438Z,903.00
2023-05-06T02:19:50.464Z,902.00
2023-05-06T02:20:50.462Z,902.00
2023-05-06T02:21:50.509Z,892.00
2023-05-06T02:22:50.730Z,895.00
2023-05-06T02:23:50.549Z,900.00
2023-05-06T02:24:50.586Z,882.00
2023-05-06T02:25:50.555Z,900.00
2023-05-06T02:26:50.597Z,900.00
2023-05-06T02:27:50.602Z,894.00
2023-05-06T02:28:50.621Z,901.00
2023-05-06T02:29:50.588Z,885.00
2023-05-06T02:30:50.643Z,878.00
2023-05-06T02:31:50.693Z,908.00
2023-05-06T02:32:50.801Z,900.00
2023-05-06T02:33:50.698Z,891.00
2023-05-06T02:34:50.699Z,890.00
2023-05-06T02:35:50.725Z,886.00
2023-05-06T02:36:50.716Z,888.00
2023-05-06T02:37:50.725Z,891.00
2023-05-06T02:38:50.727Z,891.00
2023-05-06T02:39:50.747Z,889.00
2023-05-06T02:40:50.777Z,881.00
2023-05-06T02:41:50.785Z,888.00
2023-05-06T02:42:50.894Z,889.00
2023-05-06T02:43:50.760Z,873.00
2023-05-06T02:44:50.788Z,885.00
2023-05-06T02:45:50.791Z,886.00
2023-05-06T02:46:50.796Z,896.00
2023-05-06T02:47:50.785Z,888.00
2023-05-06T02:48:51.253Z,878.00
2023-05-06T02:49:50.776Z,867.00
2023-05-06T02:50:50.756Z,883.00
2023-05-06T02:51:50.761Z,877.00
2023-05-06T02:52:50.776Z,881.00
2023-05-06T02:53:50.790Z,891.00
2023-05-06T02:54:50.736Z,882.00
2023-05-06T02:55:50.764Z,876.00
2023-05-06T02:56:50.769Z,882.00
2023-05-06T02:57:50.755Z,885.00
2023-05-06T02:58:50.856Z,874.00
2023-05-06T02:59:50.796Z,879.00
2023-05-06T03:00:50.867Z,883.00
2023-05-06T03:01:50.837Z,871.00
2023-05-06T03:02:50.888Z,881.00
2023-05-06T03:03:50.888Z,874.00
2023-05-06T03:04:50.870Z,872.00
2023-05-06T03:05:50.872Z,862.00
2023-05-06T03:06:50.853Z,869.00
2023-05-06T03:07:50.845Z,863.00
2023-05-06T03:08:50.858Z,876.00
2023-05-06T03:09:50.878Z,864.00
2023-05-06T03:10:50.909Z,866.00
2023-05-06T03:11:50.898Z,865.00
2023-05-06T03:12:50.938Z,868.00
2023-05-06T03:13:50.884Z,863.00
2023-05-06T03:14:51.014Z,865.00
2023-05-06T03:15:50.940Z,863.00
2023-05-06T03:16:50.973Z,874.00
2023-05-06T03:17:50.982Z,865.00
2023-05-06T03:18:50.902Z,859.00
2023-05-06T03:19:50.909Z,863.00
2023-05-06T03:20:50.906Z,861.00
2023-05-06T03:21:50.926Z,860.00
2023-05-06T03:22:50.943Z,876.00
2023-05-06T03:23:50.915Z,870.00
2023-05-06T03:24:50.934Z,871.00
2023-05-06T03:25:50.949Z,860.00
2023-05-06T03:26:50.951Z,857.00
2023-05-06T03:27:50.945Z,864.00
2023-05-06T03:28:50.983Z,853.00
2023-05-06T03:29:51.018Z,850.00
2023-05-06T03:30:51.205Z,859.00
2023-05-06T03:31:51.084Z,845.00
2023-05-06T03:32:51.036Z,856.00
2023-05-06T03:33:51.065Z,860.00
2023-05-06T03:34:51.050Z,849.00
2023-05-06T03:35:51.048Z,853.00
2023-05-06T03:36:51.093Z,847.00
2023-05-06T03:37:51.114Z,852.00
2023-05-06T03:38:51.296Z,859.00
2023-05-06T03:39:51.181Z,865.00
2023-05-06T03:40:51.166Z,851.00
2023-05-06T03:41:51.226Z,855.00
2023-05-06T03:42:51.226Z,855.00
2023-05-06T03:43:51.247Z,861.00
2023-05-06T03:44:51.293Z,862.00
2023-05-06T03:45:51.345Z,845.00
2023-05-06T03:46:51.385Z,852.00
2023-05-06T03:47:51.365Z,847.00
2023-05-06T03:48:51.407Z,826.00
2023-05-06T03:49:51.376Z,841.00
2023-05-06T03:50:51.412Z,861.00
2023-05-06T03:51:51.392Z,840.00
2023-05-06T03:52:51.396Z,847.00
2023-05-06T03:53:53.523Z,851.00
2023-05-06T03:54:51.427Z,854.00
2023-05-06T03:55:51.420Z,841.00
2023-05-06T03:56:51.391Z,843.00
2023-05-06T03:57:51.388Z,839.00
2023-05-06T03:58:51.363Z,862.00
2023-05-06T03:59:51.371Z,843.00
2023-05-06T04:00:51.351Z,838.00
2023-05-06T04:01:51.457Z,851.00
2023-05-06T04:02:51.419Z,841.00
2023-05-06T04:03:51.388Z,845.00
2023-05-06T04:04:51.356Z,841.00
2023-05-06T04:05:51.347Z,832.00
2023-05-06T04:06:51.327Z,845.00
2023-05-06T04:07:51.333Z,827.00
2023-05-06T04:08:51.793Z,844.00
2023-05-06T04:09:51.318Z,833.00
2023-05-06T04:10:51.295Z,836.00
2023-05-06T04:11:51.285Z,832.00
2023-05-06T04:12:51.285Z,829.00
2023-05-06T04:13:51.351Z,822.00
2023-05-06T04:14:51.292Z,821.00
2023-05-06T04:15:51.306Z,833.00
2023-05-06T04:16:51.258Z,819.00
2023-05-06T04:17:51.262Z,817.00
2023-05-06T04:18:51.276Z,827.00
2023-05-06T04:19:51.263Z,828.00
2023-05-06T04:20:51.248Z,819.00
2023-05-06T04:21:51.228Z,835.00
2023-05-06T04:22:51.194Z,817.00
2023-05-06T04:23:51.204Z,824.00
2023-05-06T04:24:51.206Z,827.00
2023-05-06T04:25:51.218Z,819.00
2023-05-06T04:26:51.228Z,818.00
2023-05-06T04:27:51.159Z,829.00
2023-05-06T04:28:51.205Z,826.00
2023-05-06T04:29:51.192Z,820.00
2023-05-06T04:30:51.145Z,807.00
2023-05-06T04:31:51.171Z,817.00
2023-05-06T04:32:51.256Z,823.00
2023-05-06T04:33:51.180Z,820.00
2023-05-06T04:34:51.134Z,818.00
2023-05-06T04:35:51.112Z,814.00
2023-05-06T04:36:51.144Z,812.00
2023-05-06T04:37:51.120Z,811.00
2023-05-06T04:38:51.118Z,807.00
2023-05-06T04:39:51.092Z,819.00
2023-05-06T04:40:51.094Z,806.00
2023-05-06T04:41:51.097Z,826.00
2023-05-06T04:42:51.109Z,804.00
2023-05-06T04:43:51.311Z,811.00
2023-05-06T04:44:51.072Z,813.00
2023-05-06T04:45:51.089Z,815.00
2023-05-06T04:46:51.069Z,807.00
2023-05-06T04:47:51.100Z,807.00
2023-05-06T04:48:51.051Z,812.00
2023-05-06T04:49:51.029Z,807.00
2023-05-06T04:50:51.133Z,825.00
2023-05-06T04:51:51.021Z,810.00
2023-05-06T04:52:51.021Z,813.00
2023-05-06T04:53:51.004Z,797.00
2023-05-06T04:54:51.022Z,800.00
2023-05-06T04:55:50.984Z,806.00
2023-05-06T04:56:50.985Z,799.00
2023-05-06T04:57:50.981Z,794.00
2023-05-06T04:58:50.977Z,804.00
2023-05-06T04:59:51.009Z,803.00
2023-05-06T05:00:50.951Z,804.00
2023-05-06T05:01:51.019Z,796.00
2023-05-06T05:02:50.972Z,800.00
2023-05-06T05:03:50.981Z,795.00
2023-05-06T05:04:50.908Z,804.00
2023-05-06T05:05:50.920Z,788.00
2023-05-06T05:06:50.975Z,799.00
2023-05-06T05:07:50.917Z,799.00
2023-05-06T05:08:50.909Z,793.00
2023-05-06T05:09:50.889Z,792.00
2023-05-06T05:10:50.888Z,805.00
2023-05-06T05:11:50.885Z,790.00
2023-05-06T05:12:50.873Z,805.00
2023-05-06T05:13:50.905Z,791.00
2023-05-06T05:14:50.864Z,790.00
2023-05-06T05:15:50.881Z,797.00
2023-05-06T05:16:50.896Z,798.00
2023-05-06T05:17:50.913Z,801.00
2023-05-06T05:18:50.843Z,786.00
2023-05-06T05:19:50.846Z,796.00
2023-05-06T05:20:50.854Z,802.00
2023-05-06T05:21:50.830Z,781.00
2023-05-06T05:22:50.934Z,787.00
2023-05-06T05:23:50.826Z,780.00
2023-05-06T05:24:50.794Z,783.00
2023-05-06T05:25:50.847Z,790.00
2023-05-06T05:26:50.817Z,784.00
2023-05-06T05:27:50.765Z,779.00
2023-05-06T05:28:50.844Z,787.00
2023-05-06T05:29:50.796Z,787.00
2023-05-06T05:30:50.773Z,786.00
2023-05-06T05:31:50.761Z,792.00
2023-05-06T05:32:50.847Z,787.00
2023-05-06T05:33:50.786Z,775.00
2023-05-06T05:34:50.749Z,784.00
2023-05-06T05:35:50.729Z,796.00
2023-05-06T05:36:50.746Z,773.00
2023-05-06T05:37:50.701Z,779.00
2023-05-06T05:38:50.720Z,780.00
2023-05-06T05:39:50.727Z,783.00
2023-05-06T05:40:50.689Z,777.00
2023-05-06T05:41:50.722Z,767.00
2023-05-06T05:42:50.700Z,788.00
2023-05-06T05:43:50.693Z,780.00
2023-05-06T05:44:50.673Z,769.00
2023-05-06T05:45:50.661Z,771.00
2023-05-06T05:46:50.732Z,761.00
2023-05-06T05:47:50.748Z,762.00
2023-05-06T05:48:50.711Z,776.00
2023-05-06T05:49:50.628Z,769.00
2023-05-06T05:50:50.629Z,768.00
2023-05-06T05:51:50.649Z,767.00
2023-05-06T05:52:50.606Z,785.00
2023-05-06T05:53:50.627Z,774.00
2023-05-06T05:54:50.709Z,762.00
2023-05-06T05:55:50.613Z,767.00
2023-05-06T05:56:50.626Z,770.00
2023-05-06T05:57:50.591Z,768.00
2023-05-06T05:58:50.589Z,769.00
2023-05-06T05:59:50.595Z,773.00
2023-05-06T06:00:50.556Z,766.00
2023-05-06T06:01:50.563Z,770.00
2023-05-06T06:02:50.648Z,771.00
2023-05-06T06:03:50.739Z,765.00
2023-05-06T06:04:50.586Z,757.00
2023-05-06T06:05:50.549Z,771.00
2023-05-06T06:06:50.494Z,755.00
2023-05-06T06:07:50.505Z,769.00
2023-05-06T06:08:50.516Z,765.00
2023-05-06T06:09:50.523Z,769.00
2023-05-06T06:10:50.566Z,768.00
2023-05-06T06:11:50.488Z,764.00
2023-05-06T06:12:50.544Z,748.00
2023-05-06T06:13:50.487Z,754.00
2023-05-06T06:14:50.446Z,768.00
2023-05-06T06:15:50.480Z,755.00
2023-05-06T06:16:50.458Z,762.00
2023-05-06T06:17:50.510Z,764.00
2023-05-06T06:18:50.480Z,751.00
2023-05-06T06:19:50.446Z,755.00
2023-05-06T06:20:52.973Z,760.00
2023-05-06T06:21:50.451Z,775.00
2023-05-06T06:22:50.422Z,769.00
2023-05-06T06:23:50.373Z,760.00
2023-05-06T06:24:50.414Z,745.00
2023-05-06T06:25:50.396Z,759.00
2023-05-06T06:26:50.480Z,752.00
2023-05-06T06:27:50.372Z,756.00
2023-05-06T06:28:50.393Z,758.00
2023-05-06T06:29:50.376Z,759.00
2023-05-06T06:30:50.374Z,749.00
2023-05-06T06:31:50.341Z,756.00
2023-05-06T06:32:50.377Z,749.00
2023-05-06T06:33:50.343Z,760.00
2023-05-06T06:34:50.319Z,755.00
2023-05-06T06:35:50.342Z,749.00
2023-05-06T06:36:50.323Z,753.00
2023-05-06T06:37:50.298Z,757.00
2023-05-06T06:38:50.286Z,750.00
2023-05-06T06:39:50.293Z,742.00
2023-05-06T06:40:50.299Z,742.00
2023-05-06T06:41:50.275Z,735.00
2023-05-06T06:42:50.327Z,744.00
2023-05-06T06:43:50.238Z,739.00
2023-05-06T06:44:50.251Z,750.00
2023-05-06T06:45:50.328Z,739.00
2023-05-06T06:46:50.238Z,745.00
2023-05-06T06:47:50.271Z,743.00
2023-05-06T06:48:50.355Z,749.00
2023-05-06T06:49:50.210Z,756.00
2023-05-06T06:50:50.240Z,755.00
2023-05-06T06:51:50.187Z,753.00
2023-05-06T06:52:50.176Z,746.00
2023-05-06T06:53:50.282Z,737.00
2023-05-06T06:54:50.226Z,742.00
2023-05-06T06:55:50.223Z,750.00
2023-05-06T06:56:50.240Z,738.00
2023-05-06T06:57:50.181Z,729.00
2023-05-06T06:58:52.422Z,745.00
2023-05-06T06:59:50.158Z,746.00
2023-05-06T07:00:50.191Z,746.00
2023-05-06T07:01:50.134Z,746.00
2023-05-06T07:02:50.171Z,745.00
2023-05-06T07:03:50.161Z,741.00
2023-05-06T07:04:50.128Z,754.00
2023-05-06T07:05:50.132Z,738.00
2023-05-06T07:06:50.105Z,743.00
2023-05-06T07:07:50.077Z,742.00
2023-05-06T07:08:50.087Z,741.00
2023-05-06T07:09:50.117Z,717.00
2023-05-06T07:10:50.087Z,735.00
2023-05-06T07:11:50.057Z,737.00
2023-05-06T07:12:50.129Z,731.00
2023-05-06T07:13:50.055Z,732.00
2023-05-06T07:14:50.120Z,724.00
2023-05-06T07:15:50.062Z,733.00
2023-05-06T07:16:51.573Z,735.00
2023-05-06T07:17:50.073Z,751.00
2023-05-06T07:18:50.016Z,740.00
2023-05-06T07:19:50.035Z,733.00
2023-05-06T07:20:50.034Z,725.00
2023-05-06T07:21:50.024Z,734.00
2023-05-06T07:22:50.010Z,722.00
2023-05-06T07:23:49.991Z,729.00
2023-05-06T07:24:49.956Z,738.00
2023-05-06T07:25:49.987Z,729.00
2023-05-06T07:26:49.978Z,728.00
2023-05-06T07:27:49.974Z,721.00
2023-05-06T07:28:49.960Z,724.00
2023-05-06T07:29:50.051Z,732.00
2023-05-06T07:30:50.095Z,718.00
2023-05-06T07:31:49.950Z,722.00
2023-05-06T07:32:50.003Z,717.00
2023-05-06T07:33:49.936Z,716.00
2023-05-06T07:34:49.915Z,731.00
2023-05-06T07:35:49.936Z,729.00
2023-05-06T07:36:49.907Z,723.00
2023-05-06T07:37:49.883Z,713.00
2023-05-06T07:38:49.911Z,728.00
2023-05-06T07:39:49.993Z,722.00
2023-05-06T07:40:50.045Z,719.00
2023-05-06T07:41:50.042Z,713.00
2023-05-06T07:42:50.106Z,711.00
2023-05-06T07:43:50.128Z,716.00
2023-05-06T07:44:50.171Z,694.00
2023-05-06T07:45:50.277Z,712.00
2023-05-06T07:46:50.388Z,706.00
2023-05-06T07:47:50.397Z,703.00
2023-05-06T07:48:50.374Z,709.00
2023-05-06T07:49:50.397Z,711.00
2023-05-06T07:50:50.456Z,704.00
2023-05-06T07:51:50.567Z,703.00
2023-05-06T07:52:50.606Z,708.00
2023-05-06T07:53:50.649Z,701.00
2023-05-06T07:54:50.680Z,699.00
2023-05-06T07:55:50.746Z,700.00
2023-05-06T07:56:50.814Z,693.00
2023-05-06T07:57:50.868Z,694.00
2023-05-06T07:58:50.925Z,691.00
2023-05-06T07:59:50.971Z,705.00
2023-05-06T08:00:51.031Z,697.00
2023-05-06T08:01:51.089Z,694.00
2023-05-06T08:02:51.293Z,703.00
2023-05-06T08:03:51.306Z,712.00
2023-05-06T08:04:51.865Z,702.00
2023-05-06T08:05:51.309Z,709.00
2023-05-06T08:06:51.351Z,697.00
2023-05-06T08:07:51.403Z,695.00
2023-05-06T08:08:51.498Z,698.00
2023-05-06T08:09:51.529Z,717.00
2023-05-06T08:10:51.590Z,707.00
2023-05-06T08:11:51.666Z,707.00
2023-05-06T08:12:51.759Z,702.00
2023-05-06T08:13:51.730Z,707.00
2023-05-06T08:14:51.806Z,687.00
2023-05-06T08:15:51.858Z,694.00
2023-05-06T08:16:51.925Z,690.00
2023-05-06T08:17:51.974Z,687.00
2023-05-06T08:18:52.104Z,703.00
2023-05-06T08:19:52.088Z,688.00
2023-05-06T08:20:52.147Z,699.00
2023-05-06T08:21:52.194Z,695.00
2023-05-06T08:22:52.291Z,682.00
2023-05-06T08:23:52.335Z,697.00
2023-05-06T08:24:52.396Z,701.00
2023-05-06T08:25:52.461Z,685.00
2023-05-06T08:26:52.535Z,690.00
2023-05-06T08:27:52.617Z,690.00
2023-05-06T08:28:52.654Z,699.00
2023-05-06T08:29:52.737Z,689.00
2023-05-06T08:30:52.755Z,677.00
2023-05-06T08:31:52.871Z,678.00
2023-05-06T08:32:52.918Z,679.00
2023-05-06T08:33:54.448Z,687.00
2023-05-06T08:34:53.036Z,688.00
2023-05-06T08:35:53.111Z,684.00
2023-05-06T08:36:53.164Z,673.00
2023-05-06T08:37:53.244Z,693.00
2023-05-06T08:38:53.281Z,672.00
2023-05-06T08:39:53.340Z,700.00
2023-05-06T08:40:53.423Z,682.00
2023-05-06T08:41:53.454Z,671.00
2023-05-06T08:42:53.506Z,684.00
2023-05-06T08:43:53.965Z,691.00
2023-05-06T08:44:53.657Z,686.00
2023-05-06T08:45:53.749Z,685.00
2023-05-06T08:46:53.784Z,689.00
2023-05-06T08:47:53.897Z,675.00
2023-05-06T08:48:53.915Z,691.00
2023-05-06T08:49:53.998Z,684.00
2023-05-06T08:50:54.147Z,688.00
2023-05-06T08:51:54.127Z,674.00
2023-05-06T08:52:54.161Z,694.00
2023-05-06T08:53:54.233Z,675.00
2023-05-06T08:54:54.279Z,698.00
2023-05-06T08:55:54.390Z,672.00
2023-05-06T08:56:54.420Z,680.00
2023-05-06T08:57:54.502Z,689.00
2023-05-06T08:58:54.578Z,680.00
2023-05-06T08:59:54.617Z,674.00
2023-05-06T09:00:54.662Z,666.00
2023-05-06T09:01:54.765Z,692.00
2023-05-06T09:02:54.868Z,676.00
2023-05-06T09:03:54.875Z,683.00
2023-05-06T09:04:54.915Z,665.00
2023-05-06T09:05:55.058Z,662.00
2023-05-06T09:06:55.182Z,683.00
2023-05-06T09:07:55.090Z,664.00
2023-05-06T09:08:55.202Z,684.00
2023-05-06T09:09:55.223Z,672.00
2023-05-06T09:10:55.305Z,664.00
2023-05-06T09:11:55.381Z,678.00
2023-05-06T09:12:55.440Z,675.00
2023-05-06T09:13:55.507Z,668.00
2023-05-06T09:14:55.530Z,670.00
2023-05-06T09:15:55.613Z,665.00
2023-05-06T09:16:55.752Z,666.00
2023-05-06T09:17:55.799Z,666.00
2023-05-06T09:18:55.847Z,667.00
2023-05-06T09:19:55.889Z,680.00
2023-05-06T09:20:55.953Z,666.00
2023-05-06T09:21:55.993Z,665.00
2023-05-06T09:22:56.131Z,674.00
2023-05-06T09:23:56.127Z,669.00
2023-05-06T09:24:56.193Z,672.00
2023-05-06T09:25:56.242Z,661.00
2023-05-06T09:26:56.317Z,666.00
2023-05-06T09:27:56.348Z,662.00
2023-05-06T09:28:56.416Z,663.00
2023-05-06T09:29:56.509Z,663.00
2023-05-06T09:30:56.620Z,667.00
2023-05-06T09:31:56.627Z,662.00
2023-05-06T09:32:56.724Z,663.00
2023-05-06T09:33:56.781Z,665.00
2023-05-06T09:34:56.802Z,666.00
2023-05-06T09:35:56.850Z,675.00
2023-05-06T09:36:56.960Z,667.00
2023-05-06T09:37:57.018Z,667.00
2023-05-06T09:38:57.521Z,668.00
2023-05-06T09:39:57.134Z,665.00
2023-05-06T09:40:57.231Z,667.00
2023-05-06T09:41:57.234Z,665.00
2023-05-06T09:42:57.353Z,665.00
2023-05-06T09:43:57.398Z,665.00
2023-05-06T09:44:59.208Z,673.00
2023-05-06T09:45:57.452Z,678.00
2023-05-06T09:46:57.438Z,669.00
2023-05-06T09:47:57.447Z,660.00
2023-05-06T09:48:57.422Z,670.00
2023-05-06T09:49:57.393Z,669.00
2023-05-06T09:50:59.490Z,663.00
2023-05-06T09:51:57.402Z,664.00
2023-05-06T09:52:57.427Z,664.00
2023-05-06T09:53:57.416Z,664.00
2023-05-06T09:54:57.520Z,664.00
2023-05-06T09:55:57.356Z,663.00
2023-05-06T09:56:59.245Z,668.00
2023-05-06T09:57:57.341Z,668.00
2023-05-06T09:58:57.352Z,668.00
2023-05-06T09:59:57.309Z,668.00
2023-05-06T10:00:57.351Z,660.00
2023-05-06T10:01:57.374Z,661.00
2023-05-06T10:02:58.051Z,666.00
2023-05-06T10:03:57.480Z,664.00
2023-05-06T10:04:57.586Z,662.00
2023-05-06T10:05:57.301Z,664.00
2023-05-06T10:06:57.287Z,663.00
2023-05-06T10:07:57.292Z,662.00
2023-05-06T10:08:57.285Z,659.00
2023-05-06T10:09:57.267Z,667.00
2023-05-06T10:10:57.284Z,664.00
2023-05-06T10:11:57.265Z,660.00
2023-05-06T10:12:57.277Z,671.00
2023-05-06T10:13:57.230Z,663.00
2023-05-06T10:14:57.205Z,661.00
2023-05-06T10:15:57.276Z,662.00
2023-05-06T10:16:57.198Z,657.00
2023-05-06T10:17:57.251Z,662.00
2023-05-06T10:18:57.189Z,660.00
2023-05-06T10:19:57.189Z,666.00
2023-05-06T10:20:57.159Z,659.00
2023-05-06T10:21:57.174Z,660.00
2023-05-06T10:22:57.168Z,655.00
2023-05-06T10:23:57.175Z,661.00
2023-05-06T10:24:57.152Z,657.00
2023-05-06T10:25:57.151Z,659.00
2023-05-06T10:26:57.264Z,661.00
2023-05-06T10:27:57.201Z,660.00
2023-05-06T10:28:57.161Z,659.00
2023-05-06T10:29:57.208Z,662.00
2023-05-06T10:30:57.244Z,654.00
2023-05-06T10:31:57.430Z,658.00
2023-05-06T10:32:57.501Z,654.00
2023-05-06T10:33:57.477Z,657.00
2023-05-06T10:34:57.542Z,657.00
2023-05-06T10:35:57.559Z,655.00
2023-05-06T10:36:57.838Z,657.00
2023-05-06T10:37:57.687Z,658.00
2023-05-06T10:38:57.979Z,654.00
2023-05-06T10:39:57.846Z,659.00
2023-05-06T10:40:57.894Z,651.00
2023-05-06T10:41:57.956Z,658.00
2023-05-06T10:42:58.073Z,665.00
2023-05-06T10:43:58.506Z,660.00
2023-05-06T10:44:58.164Z,653.00
2023-05-06T10:45:58.266Z,654.00
2023-05-06T10:46:58.285Z,659.00
2023-05-06T10:47:58.398Z,658.00
2023-05-06T10:48:58.364Z,648.00
2023-05-06T10:49:58.461Z,655.00
2023-05-06T10:50:58.526Z,660.00
2023-05-06T10:51:58.574Z,656.00
2023-05-06T10:52:58.646Z,657.00
2023-05-06T10:53:58.712Z,649.00
2023-05-06T10:54:58.747Z,655.00
2023-05-06T10:55:58.822Z,653.00
2023-05-06T10:56:58.933Z,655.00
2023-05-06T10:57:58.965Z,652.00
2023-05-06T10:58:59.101Z,657.00
2023-05-06T10:59:59.132Z,649.00
2023-05-06T11:00:59.180Z,654.00
2023-05-06T11:01:59.265Z,657.00
2023-05-06T11:02:59.320Z,652.00
2023-05-06T11:03:59.464Z,658.00
2023-05-06T11:04:59.453Z,658.00
2023-05-06T11:05:59.504Z,650.00
2023-05-06T11:06:59.513Z,656.00
2023-05-06T11:07:59.577Z,653.00
2023-05-06T11:08:59.652Z,652.00
2023-05-06T11:09:59.721Z,650.00
2023-05-06T11:10:59.776Z,659.00
2023-05-06T11:11:59.849Z,657.00
2023-05-06T11:13:00.007Z,648.00
2023-05-06T11:13:59.954Z,648.00
2023-05-06T11:15:00.037Z,656.00
2023-05-06T11:16:00.144Z,659.00
2023-05-06T11:17:00.293Z,658.00
2023-05-06T11:18:00.279Z,656.00
2023-05-06T11:19:00.271Z,650.00
2023-05-06T11:20:00.369Z,652.00
2023-05-06T11:21:00.425Z,650.00
2023-05-06T11:22:00.463Z,646.00
2023-05-06T11:23:00.543Z,650.00
2023-05-06T11:24:00.990Z,653.00
2023-05-06T11:25:00.664Z,645.00
2023-05-06T11:26:00.688Z,651.00
2023-05-06T11:27:00.804Z,646.00
2023-05-06T11:28:00.870Z,651.00
2023-05-06T11:29:00.913Z,654.00
2023-05-06T11:30:00.988Z,652.00
2023-05-06T11:31:01.131Z,654.00
2023-05-06T11:32:01.077Z,650.00
2023-05-06T11:33:02.747Z,652.00
2023-05-06T11:34:01.162Z,649.00
2023-05-06T11:35:01.159Z,655.00
2023-05-06T11:36:01.137Z,656.00
2023-05-06T11:37:01.114Z,647.00
2023-05-06T11:38:01.161Z,646.00
2023-05-06T11:39:02.877Z,649.00
2023-05-06T11:40:01.114Z,649.00
2023-05-06T11:41:01.103Z,649.00
2023-05-06T11:42:01.097Z,650.00
2023-05-06T11:43:01.074Z,653.00
2023-05-06T11:44:01.089Z,657.00
2023-05-06T11:45:01.071Z,645.00
2023-05-06T11:46:01.070Z,647.00
2023-05-06T11:47:01.060Z,653.00
2023-05-06T11:48:01.091Z,641.00
2023-05-06T11:49:01.058Z,653.00
2023-05-06T11:50:01.033Z,654.00
2023-05-06T11:51:01.051Z,651.00
2023-05-06T11:52:01.019Z,650.00
2023-05-06T11:53:01.011Z,650.00
2023-05-06T11:54:01.016Z,652.00
2023-05-06T11:55:01.027Z,650.00
2023-05-06T11:56:00.989Z,648.00
2023-05-06T11:57:00.997Z,646.00
2023-05-06T11:58:00.987Z,646.00
2023-05-06T11:59:01.008Z,648.00
2023-05-06T12:00:00.968Z,650.00
2023-05-06T12:01:00.971Z,648.00
2023-05-06T12:02:00.937Z,648.00
2023-05-06T12:03:01.053Z,651.00
2023-05-06T12:04:01.075Z,646.00
2023-05-06T12:05:00.974Z,648.00
2023-05-06T12:06:00.939Z,652.00
2023-05-06T12:07:00.916Z,649.00
2023-05-06T12:08:00.907Z,655.00
2023-05-06T12:09:01.489Z,656.00
2023-05-06T12:10:00.888Z,656.00
2023-05-06T12:11:00.921Z,653.00
2023-05-06T12:12:00.885Z,653.00
2023-05-06T12:13:00.909Z,651.00
2023-05-06T12:14:00.893Z,651.00
2023-05-06T12:15:00.870Z,651.00
2023-05-06T12:16:00.888Z,650.00
2023-05-06T12:17:00.864Z,653.00
2023-05-06T12:18:00.950Z,648.00
2023-05-06T12:19:01.012Z,651.00
2023-05-06T12:20:01.046Z,649.00
2023-05-06T12:21:01.094Z,651.00
2023-05-06T12:22:01.133Z,643.00
2023-05-06T12:23:01.195Z,653.00
2023-05-06T12:24:01.320Z,655.00
2023-05-06T12:25:01.310Z,648.00
2023-05-06T12:26:01.390Z,651.00
2023-05-06T12:27:01.423Z,653.00
2023-05-06T12:28:01.455Z,653.00
2023-05-06T12:29:01.545Z,646.00